Time;durP1;ratioP1;P1;durP2;ratioP2;P2;SDS_P1;SDS_P2;PMS_P1;PMS_P2;Temp;Humidity;BMP_temperature;BMP_pressure;BME280_temperature;BME280_humidity;BME280_pressure;Samples;Min_cycle;Max_cycle;Signal;HPM_P1;HPM_P2
2022/07/22 00:01:48;;;;;;;;;;;;;;;20.82;60.71;99291.00;2618084;47;19946;-66
2022/07/22 00:04:17;;;;;;;;;;;;;;;20.76;60.87;99284.72;2618934;54;20584;-66
2022/07/22 00:06:47;;;;;;;;;;;;;;;20.70;61.30;99283.06;2619371;54;19939;-66
2022/07/22 00:09:17;;;;;;;;;;;;;;;20.59;61.56;99286.63;2619102;54;19969;-66
2022/07/22 00:11:49;;;;;;;;;;;;;;;20.46;61.80;99282.41;2619480;54;19958;-67
2022/07/22 00:14:18;;;;;;;;;;;;;;;20.35;62.32;99274.41;2619472;39;20349;-68
2022/07/22 00:16:48;;;;;;;;;;;;;;;20.35;62.17;99275.22;2618823;54;19947;-68
2022/07/22 00:19:17;;;;;;;;;;;;;;;20.25;62.40;99272.41;2618836;54;20483;-68
2022/07/22 00:21:46;;;;;;;;;;;;;;;20.26;62.33;99279.38;2618106;47;19946;-68
2022/07/22 00:24:16;;;;;;;;;;;;;;;20.22;62.75;99271.00;2618118;54;19947;-68
2022/07/22 00:26:45;;;;;;;;;;;;;;;20.34;62.74;99268.25;2619777;54;19938;-67
2022/07/22 00:29:17;;;;;;;;;;;;;;;20.54;62.39;99270.47;2618525;54;19958;-65
2022/07/22 00:31:47;;;;;;;;;;;;;;;20.59;62.22;99272.41;2619511;54;20042;-66
2022/07/22 00:34:16;;;;;;;;;;;;;;;20.55;61.93;99264.03;2620905;54;19947;-67
2022/07/22 00:36:46;;;;;;;;;;;;;;;20.59;62.12;99269.72;2621536;54;19986;-67
2022/07/22 00:39:15;;;;;;;;;;;;;;;20.59;61.89;99272.41;2620899;54;19939;-68
2022/07/22 00:41:45;;;;;;;;;;;;;;;20.62;61.79;99278.09;2620463;54;20006;-68
2022/07/22 00:44:14;;;;;;;;;;;;;;;20.55;62.02;99268.59;2620759;47;19942;-67
2022/07/22 00:46:46;;;;;;;;;;;;;;;20.52;62.36;99264.50;2621555;54;19938;-67
2022/07/22 00:49:17;;;;;;;;;;;;;;;20.54;62.16;99267.78;2621364;39;20442;-67
2022/07/22 00:51:48;;;;;;;;;;;;;;;20.46;61.79;99266.28;2620211;46;19990;-68
2022/07/22 00:54:17;;;;;;;;;;;;;;;20.46;62.42;99271.66;2620798;54;19947;-67
2022/07/22 00:56:48;;;;;;;;;;;;;;;20.46;61.94;99270.84;2619938;47;19947;-68
2022/07/22 00:59:18;;;;;;;;;;;;;;;20.49;62.25;99271.19;2619783;54;19957;-67
2022/07/22 01:01:50;;;;;;;;;;;;;;;20.21;62.88;99266.69;2620129;47;19947;-67
2022/07/22 01:04:21;;;;;;;;;;;;;;;19.99;63.43;99271.16;2619624;54;19947;-66
2022/07/22 01:06:50;;;;;;;;;;;;;;;19.88;63.25;99269.34;2620851;54;20026;-67
2022/07/22 01:09:22;;;;;;;;;;;;;;;19.77;63.72;99269.16;2620735;54;19938;-66
2022/07/22 01:11:52;;;;;;;;;;;;;;;19.73;64.43;99262.66;2620384;54;19953;-67
2022/07/22 01:14:22;;;;;;;;;;;;;;;19.68;64.36;99262.56;2620964;54;19953;-67
2022/07/22 01:16:54;;;;;;;;;;;;;;;19.66;64.59;99262.00;2621282;54;19999;-68
2022/07/22 01:19:23;;;;;;;;;;;;;;;19.60;65.13;99268.28;2621656;54;19954;-67
2022/07/22 01:21:56;;;;;;;;;;;;;;;19.60;64.97;99272.84;2622755;54;19938;-66
2022/07/22 01:24:25;;;;;;;;;;;;;;;19.69;65.11;99271.44;2622779;47;19945;-66
2022/07/22 01:26:55;;;;;;;;;;;;;;;19.72;65.10;99265.59;2622592;54;19938;-66
2022/07/22 01:29:24;;;;;;;;;;;;;;;19.78;64.81;99260.06;2619967;54;20501;-67
2022/07/22 01:31:53;;;;;;;;;;;;;;;19.77;64.04;99273.72;2619321;47;19947;-67
2022/07/22 01:34:23;;;;;;;;;;;;;;;19.59;64.64;99269.31;2618949;47;19942;-66
2022/07/22 01:36:56;;;;;;;;;;;;;;;19.54;64.76;99270.03;2619420;54;19951;-67
2022/07/22 01:39:27;;;;;;;;;;;;;;;19.58;64.99;99272.25;2618881;47;20001;-67
2022/07/22 01:41:56;;;;;;;;;;;;;;;19.58;64.90;99273.06;2619650;47;19950;-67
2022/07/22 01:44:27;;;;;;;;;;;;;;;19.55;64.53;99276.22;2618914;54;20466;-67
2022/07/22 01:46:58;;;;;;;;;;;;;;;19.46;65.18;99277.66;2620047;47;19955;-67
2022/07/22 01:49:29;;;;;;;;;;;;;;;19.39;65.08;99271.63;2619050;54;19953;-66
2022/07/22 01:52:01;;;;;;;;;;;;;;;19.33;65.77;99270.72;2620216;54;19962;-66
2022/07/22 01:54:30;;;;;;;;;;;;;;;19.25;66.20;99263.88;2619332;47;19950;-67
2022/07/22 01:57:00;;;;;;;;;;;;;;;19.23;65.89;99284.75;2620174;54;19945;-67
2022/07/22 01:59:29;;;;;;;;;;;;;;;19.20;66.18;99279.84;2618053;47;20054;-67
2022/07/22 02:02:00;;;;;;;;;;;;;;;19.21;65.89;99277.97;2618004;54;20034;-67
2022/07/22 02:04:29;;;;;;;;;;;;;;;19.22;66.10;99283.09;2618657;54;19953;-66
2022/07/22 02:07:02;;;;;;;;;;;;;;;19.14;65.94;99283.47;2619037;54;19954;-67
2022/07/22 02:09:32;;;;;;;;;;;;;;;19.11;66.04;99288.50;2619089;54;19998;-67
2022/07/22 02:12:01;;;;;;;;;;;;;;;19.11;66.40;99285.81;2619045;47;19946;-67
2022/07/22 02:14:37;;;;;;;;;;;;;;;19.07;66.88;99284.66;2618971;54;19964;-67
2022/07/22 02:17:07;;;;;;;;;;;;;;;19.03;66.67;99287.81;2619057;47;19987;-68
2022/07/22 02:19:36;;;;;;;;;;;;;;;18.97;66.39;99280.69;2618734;47;19972;-66
2022/07/22 02:22:09;;;;;;;;;;;;;;;18.94;66.53;99277.66;2618406;54;19942;-67
2022/07/22 02:24:39;;;;;;;;;;;;;;;18.86;67.13;99278.88;2618880;47;19945;-66
2022/07/22 02:27:11;;;;;;;;;;;;;;;18.74;67.34;99270.03;2618728;47;19949;-68
2022/07/22 02:29:41;;;;;;;;;;;;;;;18.71;67.40;99273.19;2618622;47;20021;-67
2022/07/22 02:32:11;;;;;;;;;;;;;;;18.71;67.76;99276.66;2618854;54;19939;-67
2022/07/22 02:34:41;;;;;;;;;;;;;;;18.77;67.71;99275.72;2618812;54;19950;-67
2022/07/22 02:37:15;;;;;;;;;;;;;;;18.82;67.73;99277.72;2618972;54;19944;-66
2022/07/22 02:39:46;;;;;;;;;;;;;;;18.77;67.90;99273.03;2619552;54;19997;-66
2022/07/22 02:42:17;;;;;;;;;;;;;;;18.72;68.00;99274.78;2622900;47;19949;-66
2022/07/22 02:44:49;;;;;;;;;;;;;;;18.66;68.16;99275.72;2623121;54;19950;-66
2022/07/22 02:47:19;;;;;;;;;;;;;;;18.61;68.22;99271.03;2619323;54;19938;-67
2022/07/22 02:49:49;;;;;;;;;;;;;;;18.63;67.76;99274.31;2620257;39;20354;-67
2022/07/22 02:52:21;;;;;;;;;;;;;;;18.60;67.94;99269.41;2618394;46;19953;-67
2022/07/22 02:54:50;;;;;;;;;;;;;;;18.53;68.31;99263.34;2618371;54;20465;-68
2022/07/22 02:57:20;;;;;;;;;;;;;;;18.49;68.04;99263.03;2618942;54;19945;-67
2022/07/22 02:59:49;;;;;;;;;;;;;;;18.40;68.65;99263.59;2618373;47;19939;-67
2022/07/22 03:02:19;;;;;;;;;;;;;;;18.33;69.00;99269.06;2618450;54;19973;-67
2022/07/22 03:04:48;;;;;;;;;;;;;;;18.21;69.38;99277.09;2618266;47;19951;-69
2022/07/22 03:07:20;;;;;;;;;;;;;;;18.17;69.36;99270.56;2618970;54;19939;-67
2022/07/22 03:09:50;;;;;;;;;;;;;;;18.21;69.16;99265.56;2620678;54;20438;-68
2022/07/22 03:12:20;;;;;;;;;;;;;;;18.23;69.16;99266.94;2623177;47;19939;-65
2022/07/22 03:14:49;;;;;;;;;;;;;;;18.22;69.55;99270.69;2622377;46;19951;-68
2022/07/22 03:17:21;;;;;;;;;;;;;;;18.21;69.20;99265.56;2623270;54;19950;-67
2022/07/22 03:19:50;;;;;;;;;;;;;;;18.19;70.00;99273.00;2624232;54;19986;-67
2022/07/22 03:22:22;;;;;;;;;;;;;;;18.18;69.52;99272.19;2624286;54;19938;-67
2022/07/22 03:24:52;;;;;;;;;;;;;;;18.17;69.48;99278.59;2623304;47;20422;-67
2022/07/22 03:27:21;;;;;;;;;;;;;;;18.19;69.70;99275.66;2619870;54;20477;-67
2022/07/22 03:29:51;;;;;;;;;;;;;;;18.12;69.53;99272.28;2619581;39;20456;-68
2022/07/22 03:32:21;;;;;;;;;;;;;;;18.05;69.79;99277.75;2619005;54;19945;-68
2022/07/22 03:34:52;;;;;;;;;;;;;;;18.03;69.72;99277.97;2618955;54;20446;-68
2022/07/22 03:37:24;;;;;;;;;;;;;;;18.08;70.27;99285.28;2619354;46;20050;-66
2022/07/22 03:39:54;;;;;;;;;;;;;;;18.17;69.45;99283.94;2619532;47;20458;-66
2022/07/22 03:42:24;;;;;;;;;;;;;;;18.20;69.48;99280.78;2621137;47;19954;-66
2022/07/22 03:44:54;;;;;;;;;;;;;;;18.18;69.25;99280.22;2622566;47;19958;-69
2022/07/22 03:47:24;;;;;;;;;;;;;;;18.12;69.40;99275.75;2622955;54;19946;-67
2022/07/22 03:49:54;;;;;;;;;;;;;;;18.07;69.01;99276.47;2622595;46;19994;-65
2022/07/22 03:52:31;;;;;;;;;;;;;;;17.99;69.72;99275.97;2622810;54;19970;-67
2022/07/22 03:55:04;;;;;;;;;;;;;;;17.94;69.72;99274.00;2622138;46;19957;-67
2022/07/22 03:57:36;;;;;;;;;;;;;;;17.95;70.02;99274.81;2622006;47;20414;-67
2022/07/22 04:03:04;;;;;;;;;;;;;;;17.98;69.87;99277.03;2610417;39;20329;-68
2022/07/22 04:06:04;;;;;;;;;;;;;;;17.98;69.67;99266.34;2617528;54;20436;-68
2022/07/22 04:08:44;;;;;;;;;;;;;;;17.97;69.83;99275.41;2618125;39;20353;-68
2022/07/22 04:11:14;;;;;;;;;;;;;;;17.88;70.10;99269.56;2617393;47;20050;-67
2022/07/22 04:13:44;;;;;;;;;;;;;;;17.97;70.00;99278.91;2617619;54;19939;-67
2022/07/22 04:16:13;;;;;;;;;;;;;;;18.00;70.37;99272.25;2616842;54;19983;-65
2022/07/22 04:18:52;;;;;;;;;;;;;;;18.03;69.97;99275.28;2621921;47;20069;-64
2022/07/22 04:21:37;;;;;;;;;;;;;;;18.02;69.52;99268.31;2621251;47;19942;-64
2022/07/22 04:24:13;;;;;;;;;;;;;;;17.97;69.84;99265.53;2622826;47;19981;-64
2022/07/22 04:26:42;;;;;;;;;;;;;;;17.98;69.83;99263.66;2621640;54;19938;-65
2022/07/22 04:29:12;;;;;;;;;;;;;;;17.98;70.31;99267.13;2620672;54;20418;-65
2022/07/22 04:31:43;;;;;;;;;;;;;;;18.10;69.93;99261.00;2620883;46;19951;-64
2022/07/22 04:34:16;;;;;;;;;;;;;;;18.14;69.80;99264.84;2619552;54;19939;-64
2022/07/22 04:36:46;;;;;;;;;;;;;;;18.14;69.76;99270.22;2619535;46;19953;-64
2022/07/22 04:39:18;;;;;;;;;;;;;;;18.12;69.20;99273.09;2619735;54;19950;-65
2022/07/22 04:41:55;;;;;;;;;;;;;;;18.10;69.13;99272.53;2622099;39;20586;-64
2022/07/22 04:44:25;;;;;;;;;;;;;;;18.09;69.72;99273.56;2620892;54;19939;-64
2022/07/22 04:46:54;;;;;;;;;;;;;;;18.22;69.55;99277.91;2621439;54;19946;-63
2022/07/22 04:49:25;;;;;;;;;;;;;;;18.39;69.31;99283.38;2621571;54;19973;-69
2022/07/22 04:51:58;;;;;;;;;;;;;;;18.44;68.73;99275.47;2621205;54;20002;-67
2022/07/22 04:54:41;;;;;;;;;;;;;;;18.45;68.51;99275.25;2621412;54;20423;-64
2022/07/22 04:57:11;;;;;;;;;;;;;;;18.48;68.62;99269.41;2622002;47;19950;-65
2022/07/22 04:59:40;;;;;;;;;;;;;;;18.59;68.54;99270.47;2622224;54;20052;-64
2022/07/22 05:02:10;;;;;;;;;;;;;;;18.63;67.86;99268.94;2623577;31;20415;-65
2022/07/22 05:04:39;;;;;;;;;;;;;;;18.73;67.39;99269.19;2622730;54;19938;-65
2022/07/22 05:07:09;;;;;;;;;;;;;;;18.72;67.26;99264.09;2623724;39;20327;-65
2022/07/22 05:09:41;;;;;;;;;;;;;;;18.74;67.30;99262.00;2623360;54;19946;-66
2022/07/22 05:12:13;;;;;;;;;;;;;;;18.74;67.62;99257.47;2622169;54;20007;-65
2022/07/22 05:14:43;;;;;;;;;;;;;;;18.83;67.31;99260.59;2620915;54;19947;-65
2022/07/22 05:17:13;;;;;;;;;;;;;;;18.90;67.28;99253.25;2620865;54;19942;-66
2022/07/22 05:20:00;;;;;;;;;;;;;;;18.87;67.16;99260.94;2620593;47;19940;-66
2022/07/22 05:22:29;;;;;;;;;;;;;;;18.86;67.00;99261.97;2622106;39;20339;-68
2022/07/22 05:25:11;;;;;;;;;;;;;;;18.87;66.71;99258.25;2622494;47;19946;-65
2022/07/22 05:27:51;;;;;;;;;;;;;;;18.80;66.75;99253.81;2622698;46;19947;-67
2022/07/22 05:30:25;;;;;;;;;;;;;;;18.85;67.29;99260.34;2622256;54;19953;-66
2022/07/22 05:32:55;;;;;;;;;;;;;;;18.81;67.02;99255.44;2622146;54;19951;-67
2022/07/22 05:35:44;;;;;;;;;;;;;;;18.86;67.20;99262.81;2622364;54;19967;-66
2022/07/22 05:38:15;;;;;;;;;;;;;;;18.81;66.37;99255.44;2621537;54;20435;-66
2022/07/22 05:40:48;;;;;;;;;;;;;;;18.89;66.89;99261.50;2619886;50;19954;-65
2022/07/22 05:43:17;;;;;;;;;;;;;;;18.91;66.30;99256.72;2619745;54;20045;-66
2022/07/22 05:45:47;;;;;;;;;;;;;;;18.95;66.40;99249.84;2619776;54;19966;-66
2022/07/22 05:48:17;;;;;;;;;;;;;;;18.97;66.39;99253.91;2618897;54;19939;-66
2022/07/22 05:50:46;;;;;;;;;;;;;;;19.08;66.03;99264.84;2619510;54;19946;-66
2022/07/22 05:53:17;;;;;;;;;;;;;;;19.02;65.82;99261.22;2619250;47;19998;-64
2022/07/22 05:55:50;;;;;;;;;;;;;;;19.02;66.04;99256.72;2619808;47;19938;-64
2022/07/22 05:58:19;;;;;;;;;;;;;;;19.10;66.11;99252.81;2621386;54;20403;-64
2022/07/22 06:00:49;;;;;;;;;;;;;;;19.23;65.67;99249.09;2622173;31;20476;-65
2022/07/22 06:03:18;;;;;;;;;;;;;;;19.30;65.55;99247.06;2621379;54;19947;-64
2022/07/22 06:05:48;;;;;;;;;;;;;;;19.41;64.56;99258.81;2621235;54;19958;-65
2022/07/22 06:08:17;;;;;;;;;;;;;;;19.30;65.43;99252.41;2621302;54;19943;-65
2022/07/22 06:10:52;;;;;;;;;;;;;;;19.39;65.42;99259.06;2620789;54;19951;-64
2022/07/22 06:13:23;;;;;;;;;;;;;;;19.52;64.74;99258.75;2620826;47;19946;-65
2022/07/22 06:15:53;;;;;;;;;;;;;;;19.65;64.13;99252.31;2621501;54;19951;-65
2022/07/22 06:18:22;;;;;;;;;;;;;;;19.73;64.31;99254.63;2621048;54;19950;-65
2022/07/22 06:20:52;;;;;;;;;;;;;;;19.84;64.12;99260.97;2620723;54;19938;-66
2022/07/22 06:23:21;;;;;;;;;;;;;;;19.97;63.16;99257.19;2621066;47;20473;-65
2022/07/22 06:25:53;;;;;;;;;;;;;;;19.96;63.19;99259.06;2619101;47;19946;-64
2022/07/22 06:28:29;;;;;;;;;;;;;;;19.89;63.42;99254.88;2619016;54;19946;-65
2022/07/22 06:30:58;;;;;;;;;;;;;;;19.91;63.41;99253.56;2619330;54;19947;-67
2022/07/22 06:33:29;;;;;;;;;;;;;;;20.03;62.72;99253.50;2618386;54;19946;-67
2022/07/22 06:36:00;;;;;;;;;;;;;;;20.03;62.65;99245.47;2618189;47;19938;-68
2022/07/22 06:38:31;;;;;;;;;;;;;;;20.09;62.88;99249.88;2618286;54;19947;-67
2022/07/22 06:41:30;;;;;;;;;;;;;;;20.22;61.67;99243.34;2619718;54;20530;-65
2022/07/22 06:44:06;;;;;;;;;;;;;;;20.24;62.10;99247.41;2619631;54;20414;-65
2022/07/22 06:46:47;;;;;;;;;;;;;;;20.33;61.90;99245.16;2619767;54;19950;-65
2022/07/22 06:49:19;;;;;;;;;;;;;;;20.42;61.34;99242.84;2620501;39;20409;-66
2022/07/22 06:51:53;;;;;;;;;;;;;;;20.48;60.78;99231.94;2620047;51;20418;-66
2022/07/22 06:54:23;;;;;;;;;;;;;;;20.50;60.67;99229.84;2620824;54;19949;-66
2022/07/22 06:56:57;;;;;;;;;;;;;;;20.55;60.61;99231.78;2621316;54;19959;-66
2022/07/22 06:59:32;;;;;;;;;;;;;;;20.65;60.16;99231.91;2620827;47;19986;-66
2022/07/22 07:02:03;;;;;;;;;;;;;;;20.66;60.68;99236.25;2619993;47;19946;-64
2022/07/22 07:04:38;;;;;;;;;;;;;;;20.61;60.52;99228.09;2618961;47;19986;-64
2022/07/22 07:07:09;;;;;;;;;;;;;;;20.68;60.83;99230.63;2618939;54;19939;-63
2022/07/22 07:09:56;;;;;;;;;;;;;;;20.79;60.87;99227.00;2618819;47;19954;-65
2022/07/22 07:12:36;;;;;;;;;;;;;;;20.97;59.91;99223.19;2618582;47;19950;-64
2022/07/22 07:15:21;;;;;;;;;;;;;;;21.05;59.41;99221.94;2618862;50;20043;-65
2022/07/22 07:17:56;;;;;;;;;;;;;;;21.01;58.96;99219.75;2618726;54;19935;-65
2022/07/22 07:20:26;;;;;;;;;;;;;;;21.10;59.37;99216.63;2618638;46;20062;-65
2022/07/22 07:22:57;;;;;;;;;;;;;;;21.21;59.00;99224.56;2618540;47;20075;-64
2022/07/22 07:25:27;;;;;;;;;;;;;;;21.17;58.88;99211.88;2618856;54;19939;-64
2022/07/22 07:28:00;;;;;;;;;;;;;;;21.17;59.40;99211.88;2618537;54;20470;-64
2022/07/22 07:30:48;;;;;;;;;;;;;;;21.37;58.52;99206.75;2618474;54;19950;-64
2022/07/22 07:33:18;;;;;;;;;;;;;;;21.30;58.69;99207.97;2618669;54;19964;-64
2022/07/22 07:35:48;;;;;;;;;;;;;;;21.31;58.88;99202.38;2618414;54;20051;-64
2022/07/22 07:38:24;;;;;;;;;;;;;;;21.33;58.84;99192.19;2619025;39;20346;-65
2022/07/22 07:40:54;;;;;;;;;;;;;;;21.46;57.83;99197.16;2618288;54;20071;-64
2022/07/22 07:43:26;;;;;;;;;;;;;;;21.48;58.64;99195.03;2619408;31;20426;-64
2022/07/22 07:45:55;;;;;;;;;;;;;;;21.55;58.07;99184.06;2618787;54;19946;-63
2022/07/22 07:48:25;;;;;;;;;;;;;;;21.79;57.46;99192.63;2620713;54;19942;-66
2022/07/22 07:50:55;;;;;;;;;;;;;;;21.84;56.57;99189.16;2624923;54;19945;-65
2022/07/22 07:53:24;;;;;;;;;;;;;;;21.79;57.12;99186.44;2625953;54;19938;-66
2022/07/22 07:55:55;;;;;;;;;;;;;;;21.83;57.24;99182.16;2625447;54;19939;-65
2022/07/22 07:58:28;;;;;;;;;;;;;;;21.98;56.72;99190.34;2624645;54;19950;-66
2022/07/22 08:01:01;;;;;;;;;;;;;;;22.03;56.50;99187.69;2624491;54;20004;-67
2022/07/22 08:03:31;;;;;;;;;;;;;;;22.02;56.39;99178.00;2624049;54;19955;-65
2022/07/22 08:06:01;;;;;;;;;;;;;;;22.18;56.08;99189.72;2625511;39;20371;-66
2022/07/22 08:08:31;;;;;;;;;;;;;;;22.22;55.88;99186.25;2624009;54;19950;-66
2022/07/22 08:11:07;;;;;;;;;;;;;;;22.13;55.85;99182.44;2624019;47;19993;-65
2022/07/22 08:13:54;;;;;;;;;;;;;;;22.22;55.98;99185.44;2622769;47;19957;-65
2022/07/22 08:16:42;;;;;;;;;;;;;;;22.23;55.88;99182.47;2624062;54;19990;-66
2022/07/22 08:19:12;;;;;;;;;;;;;;;22.28;55.60;99189.78;2622230;54;19946;-66
2022/07/22 08:21:44;;;;;;;;;;;;;;;22.26;55.11;99189.25;2622631;47;20006;-64
2022/07/22 08:24:22;;;;;;;;;;;;;;;22.32;55.32;99182.81;2622472;54;19950;-65
2022/07/22 08:26:52;;;;;;;;;;;;;;;22.35;55.91;99178.78;2622159;54;19953;-66
2022/07/22 08:29:24;;;;;;;;;;;;;;;22.49;55.30;99171.84;2621005;54;19950;-65
2022/07/22 08:31:54;;;;;;;;;;;;;;;22.53;54.87;99161.38;2620122;54;19946;-65
2022/07/22 08:34:24;;;;;;;;;;;;;;;22.64;54.86;99168.44;2619408;54;19975;-65
2022/07/22 08:36:55;;;;;;;;;;;;;;;22.82;54.97;99167.16;2620302;54;19946;-65
2022/07/22 08:39:26;;;;;;;;;;;;;;;22.89;54.18;99168.53;2619042;46;19939;-64
2022/07/22 08:41:56;;;;;;;;;;;;;;;22.97;53.72;99164.56;2618194;54;19947;-64
2022/07/22 08:44:31;;;;;;;;;;;;;;;22.94;53.88;99162.38;2619281;47;19938;-66
2022/07/22 08:47:01;;;;;;;;;;;;;;;23.03;54.22;99163.50;2618249;54;19942;-66
2022/07/22 08:50:10;;;;;;;;;;;;;;;23.38;52.94;99153.84;2619189;54;19956;-65
2022/07/22 08:53:00;;;;;;;;;;;;;;;23.50;52.69;99167.91;2618914;54;19939;-66
2022/07/22 08:55:29;;;;;;;;;;;;;;;23.49;52.55;99150.09;2618524;47;19983;-66
2022/07/22 08:57:59;;;;;;;;;;;;;;;23.40;52.40;99147.13;2619089;54;19945;-65
2022/07/22 09:00:31;;;;;;;;;;;;;;;23.37;52.58;99150.34;2618261;47;20441;-65
2022/07/22 09:03:00;;;;;;;;;;;;;;;23.41;52.18;99151.44;2619342;54;19995;-65
2022/07/22 09:05:35;;;;;;;;;;;;;;;23.54;52.52;99142.00;2618002;47;20453;-65
2022/07/22 09:08:19;;;;;;;;;;;;;;;23.82;52.15;99137.19;2617681;47;19938;-65
2022/07/22 09:10:56;;;;;;;;;;;;;;;24.10;52.24;99146.59;2617609;47;19970;-65
2022/07/22 09:13:44;;;;;;;;;;;;;;;;;;2618800;54;19981;-65
2022/07/22 09:16:43;;;;;;;;;;;;;;;24.14;51.19;99134.97;2617972;54;19998;-65
2022/07/22 09:19:34;;;;;;;;;;;;;;;24.31;50.95;99126.56;2618946;54;19950;-67
2022/07/22 09:22:35;;;;;;;;;;;;;;;24.28;50.29;99129.78;2620463;39;20347;-66
2022/07/22 09:25:29;;;;;;;;;;;;;;;24.23;50.21;99140.63;2618793;51;19989;-66
2022/07/22 09:28:24;;;;;;;;;;;;;;;24.30;49.97;99134.94;2618731;54;19954;-66
2022/07/22 09:31:25;;;;;;;;;;;;;;;24.33;50.44;99131.66;2619899;39;20354;-66
2022/07/22 09:34:09;;;;;;;;;;;;;;;24.49;50.20;99135.97;2618162;47;19950;-65
2022/07/22 09:36:55;;;;;;;;;;;;;;;24.56;50.18;99125.69;2618067;54;19947;-65
2022/07/22 09:39:28;;;;;;;;;;;;;;;24.69;49.60;99124.28;2617683;54;19946;-64
2022/07/22 09:41:59;;;;;;;;;;;;;;;24.58;49.58;99123.53;2617778;54;19993;-65
2022/07/22 09:44:29;;;;;;;;;;;;;;;24.67;50.13;99119.16;2617835;54;19979;-65
2022/07/22 09:47:03;;;;;;;;;;;;;;;24.87;48.87;99115.56;2618462;39;20350;-65
2022/07/22 09:49:51;;;;;;;;;;;;;;;24.99;48.91;99123.34;2618802;39;20382;-65
2022/07/22 09:52:41;;;;;;;;;;;;;;;25.08;48.46;99116.22;2618272;39;20341;-65
2022/07/22 09:55:18;;;;;;;;;;;;;;;25.08;48.14;99113.53;2618352;54;19957;-65
2022/07/22 09:57:48;;;;;;;;;;;;;;;25.04;48.97;99112.47;2617281;47;20446;-65
2022/07/22 10:00:21;;;;;;;;;;;;;;;25.05;48.24;99108.69;2617658;54;19954;-65
2022/07/22 10:02:58;;;;;;;;;;;;;;;25.10;48.23;99105.16;2617232;54;19946;-64
2022/07/22 10:05:33;;;;;;;;;;;;;;;25.25;48.76;99093.44;2617655;39;20338;-64
2022/07/22 10:08:04;;;;;;;;;;;;;;;25.43;47.98;99090.03;2619601;51;19990;-65
2022/07/22 10:10:35;;;;;;;;;;;;;;;25.58;46.68;99092.63;2618048;31;20390;-65
2022/07/22 10:13:05;;;;;;;;;;;;;;;25.56;46.92;99094.00;2617995;39;20366;-64
2022/07/22 10:15:36;;;;;;;;;;;;;;;25.60;47.18;99073.41;2617466;54;19946;-67
2022/07/22 10:18:09;;;;;;;;;;;;;;;25.79;47.13;99068.91;2617012;47;19962;-67
2022/07/22 10:20:42;;;;;;;;;;;;;;;25.91;46.21;99068.50;2617107;54;19943;-67
2022/07/22 10:23:16;;;;;;;;;;;;;;;26.02;46.15;99063.81;2617550;47;19950;-66
2022/07/22 10:25:53;;;;;;;;;;;;;;;25.86;45.73;99057.75;2617402;47;19993;-68
2022/07/22 10:28:25;;;;;;;;;;;;;;;26.01;46.72;99063.00;2617972;50;19947;-67
2022/07/22 10:30:55;;;;;;;;;;;;;;;26.08;46.05;99063.44;2617786;46;19943;-67
2022/07/22 10:33:31;;;;;;;;;;;;;;;26.24;45.57;99055.94;2618471;54;19939;-67
2022/07/22 10:36:04;;;;;;;;;;;;;;;26.51;44.43;99062.72;2618496;54;19947;-66
2022/07/22 10:38:35;;;;;;;;;;;;;;;26.27;44.69;99049.97;2617829;54;19945;-66
2022/07/22 10:41:06;;;;;;;;;;;;;;;26.39;44.24;99053.06;2618725;39;20005;-66
2022/07/22 10:43:48;;;;;;;;;;;;;;;26.27;44.24;99046.44;2618356;39;20338;-67
2022/07/22 10:46:18;;;;;;;;;;;;;;;26.26;44.71;99044.84;2618476;54;19946;-67
2022/07/22 10:48:48;;;;;;;;;;;;;;;26.24;44.69;99041.59;2618623;39;20314;-67
2022/07/22 10:51:22;;;;;;;;;;;;;;;26.27;44.55;99044.53;2624196;31;20454;-68
2022/07/22 10:53:56;;;;;;;;;;;;;;;26.42;45.26;99038.94;2625015;54;19948;-67
2022/07/22 10:56:29;;;;;;;;;;;;;;;26.66;44.06;99040.81;2625736;54;19946;-68
2022/07/22 10:59:09;;;;;;;;;;;;;;;26.70;44.05;99031.00;2623641;54;19998;-68
2022/07/22 11:01:39;;;;;;;;;;;;;;;26.89;43.65;99029.06;2619701;54;20430;-67
2022/07/22 11:04:13;;;;;;;;;;;;;;;26.87;43.61;99020.44;2619137;39;20354;-67
2022/07/22 11:06:50;;;;;;;;;;;;;;;27.03;43.64;99021.00;2618988;54;20070;-68
2022/07/22 11:09:21;;;;;;;;;;;;;;;26.93;43.34;99016.53;2618566;54;19938;-67
2022/07/22 11:11:52;;;;;;;;;;;;;;;27.02;43.71;99022.09;2618840;54;19946;-68
2022/07/22 11:14:25;;;;;;;;;;;;;;;27.24;43.03;99016.09;2619305;54;19969;-68
2022/07/22 11:16:55;;;;;;;;;;;;;;;27.70;41.85;99006.31;2619399;39;20326;-67
2022/07/22 11:19:25;;;;;;;;;;;;;;;27.76;41.45;99014.13;2618803;31;20440;-68
2022/07/22 11:21:58;;;;;;;;;;;;;;;27.60;41.47;99005.41;2618068;54;20030;-68
2022/07/22 11:24:28;;;;;;;;;;;;;;;27.58;41.17;98998.66;2618744;54;19946;-68
2022/07/22 11:26:58;;;;;;;;;;;;;;;27.64;41.61;99000.19;2618501;54;19950;-68
2022/07/22 11:29:36;;;;;;;;;;;;;;;27.65;41.27;98997.16;2617745;47;20447;-68
2022/07/22 11:32:06;;;;;;;;;;;;;;;27.65;41.72;98996.38;2618541;54;20437;-68
2022/07/22 11:34:38;;;;;;;;;;;;;;;27.78;41.91;98992.88;2618759;54;20015;-68
2022/07/22 11:37:10;;;;;;;;;;;;;;;27.89;41.76;98982.63;2618695;54;19938;-68
2022/07/22 11:39:39;;;;;;;;;;;;;;;27.91;41.52;98980.41;2617313;54;19942;-66
2022/07/22 11:42:09;;;;;;;;;;;;;;;28.09;41.06;98979.50;2618767;54;19954;-66
2022/07/22 11:44:39;;;;;;;;;;;;;;;28.28;40.56;98970.41;2618581;54;19946;-67
2022/07/22 11:47:10;;;;;;;;;;;;;;;28.46;40.38;98974.13;2618315;54;19942;-67
2022/07/22 11:49:40;;;;;;;;;;;;;;;28.60;39.59;98966.72;2618015;39;20322;-67
2022/07/22 11:52:14;;;;;;;;;;;;;;;28.67;40.24;98960.88;2617734;54;19945;-67
2022/07/22 11:54:44;;;;;;;;;;;;;;;28.87;39.62;98960.38;2618316;54;19946;-67
2022/07/22 11:57:14;;;;;;;;;;;;;;;29.01;39.09;98960.34;2617893;47;19945;-67
2022/07/22 11:59:44;;;;;;;;;;;;;;;29.09;39.01;98960.38;2617464;54;20434;-67
2022/07/22 12:02:15;;;;;;;;;;;;;;;29.03;38.37;98961.63;2617943;39;20339;-68
2022/07/22 12:04:45;;;;;;;;;;;;;;;28.98;38.66;98955.50;2618565;39;20365;-68
2022/07/22 12:07:18;;;;;;;;;;;;;;;29.14;39.21;98948.56;2618255;54;19947;-68
2022/07/22 12:09:48;;;;;;;;;;;;;;;29.31;38.11;98939.69;2617423;47;19961;-68
2022/07/22 12:12:18;;;;;;;;;;;;;;;29.35;38.48;98935.22;2618315;54;19947;-68
2022/07/22 12:14:48;;;;;;;;;;;;;;;29.64;38.87;98936.66;2618835;39;20353;-66
2022/07/22 12:17:17;;;;;;;;;;;;;;;29.82;37.63;98927.41;2618226;54;19946;-67
2022/07/22 12:19:47;;;;;;;;;;;;;;;29.99;37.14;98934.84;2617882;39;20350;-68
2022/07/22 12:22:24;;;;;;;;;;;;;;;30.14;37.17;98926.22;2618211;54;19939;-68
2022/07/22 12:25:04;;;;;;;;;;;;;;;30.35;37.41;98915.50;2617727;54;19951;-69
2022/07/22 12:33:19;;;;;;;;;;;;;;;30.26;36.29;98896.41;2602110;36;52186;-66
2022/07/22 12:52:59;;;;;;;;;;;;;;;29.77;37.13;98903.06;2622574;54;19938;-66
2022/07/22 12:55:48;;;;;;;;;;;;;;;29.94;36.82;98905.81;2623014;54;19942;-65
2022/07/22 12:58:18;;;;;;;;;;;;;;;30.20;36.20;98900.41;2622833;54;19945;-65
2022/07/22 13:00:50;;;;;;;;;;;;;;;30.11;36.47;98896.84;2622986;54;19958;-64
2022/07/22 13:03:21;;;;;;;;;;;;;;;30.16;36.77;98894.00;2622598;54;19946;-64
2022/07/22 13:05:51;;;;;;;;;;;;;;;30.37;36.22;98887.91;2621840;54;19951;-64
2022/07/22 13:08:23;;;;;;;;;;;;;;;30.36;35.97;98873.47;2622295;54;19973;-64
2022/07/22 13:10:53;;;;;;;;;;;;;;;30.27;36.04;98881.66;2622483;54;19947;-64
2022/07/22 13:13:23;;;;;;;;;;;;;;;30.34;36.05;98873.00;2622543;54;19953;-64
2022/07/22 13:15:53;;;;;;;;;;;;;;;30.49;35.66;98867.03;2622753;38;20364;-65
2022/07/22 13:18:22;;;;;;;;;;;;;;;30.57;35.67;98855.31;2622769;38;20467;-64
2022/07/22 13:20:52;;;;;;;;;;;;;;;30.65;35.46;98853.69;2622486;54;19939;-64
2022/07/22 13:23:25;;;;;;;;;;;;;;;30.84;35.48;98847.91;2622296;54;19947;-64
2022/07/22 13:25:54;;;;;;;;;;;;;;;31.16;34.94;98846.53;2622467;54;20001;-64
2022/07/22 13:28:24;;;;;;;;;;;;;;;31.28;34.76;98852.09;2623073;54;19977;-65
2022/07/22 13:30:57;;;;;;;;;;;;;;;31.31;34.10;98846.00;2624063;54;19951;-64
2022/07/22 13:33:27;;;;;;;;;;;;;;;31.26;33.81;98845.34;2624162;38;20314;-64
2022/07/22 13:35:56;;;;;;;;;;;;;;;31.31;33.77;98842.44;2622109;46;19942;-65
2022/07/22 13:38:28;;;;;;;;;;;;;;;31.45;34.42;98839.50;2624229;54;19957;-66
2022/07/22 13:40:58;;;;;;;;;;;;;;;31.48;33.80;98841.59;2623474;54;19947;-64
2022/07/22 13:43:27;;;;;;;;;;;;;;;31.44;33.39;98844.19;2622008;54;19969;-66